Time;durP1;ratioP1;P1;durP2;ratioP2;P2;SDS_P1;SDS_P2;PMS_P1;PMS_P2;Temp;Humidity;BMP_temperature;BMP_pressure;BME280_temperature;BME280_humidity;BME280_pressure;Samples;Min_cycle;Max_cycle;Signal;HPM_P1;HPM_P2
2021/12/09 00:00:20;;;;;;;;;2.00;2.00;;;;;7.64;58.40;99944.53;2076176;28;47536;-65
2021/12/09 00:01:24;;;;;;;;;2.50;2.25;;;;;7.65;58.48;99948.03;2072658;28;46304;-63
2021/12/09 00:02:27;;;;;;;;;3.00;2.00;;;;;7.65;58.60;99945.41;2078383;28;47379;-62
2021/12/09 00:03:34;;;;;;;;;2.75;1.00;;;;;7.65;58.59;99945.41;2075889;28;48714;-62
2021/12/09 00:04:34;;;;;;;;;2.50;2.50;;;;;7.64;58.32;99941.03;2077851;28;47436;-62
2021/12/09 00:05:36;;;;;;;;;1.00;1.00;;;;;7.63;58.22;99945.44;2075272;28;46039;-61
2021/12/09 00:06:38;;;;;;;;;1.00;1.00;;;;;7.63;58.25;99942.78;2077618;28;47519;-60
2021/12/09 00:07:42;;;;;;;;;1.00;1.00;;;;;7.63;58.60;99948.06;2074931;28;48338;-61
2021/12/09 00:08:42;;;;;;;;;1.75;1.75;;;;;7.62;58.46;99951.63;2073906;28;45779;-61
2021/12/09 00:09:42;;;;;;;;;1.00;1.00;;;;;7.62;58.31;99948.09;2076220;28;47296;-61
2021/12/09 00:10:43;;;;;;;;;3.67;2.33;;;;;7.61;58.53;99939.28;2074473;28;47499;-61
2021/12/09 00:11:45;;;;;;;;;2.33;2.00;;;;;7.61;58.50;99941.94;2076357;28;46541;-61
2021/12/09 00:12:46;;;;;;;;;1.25;1.00;;;;;7.61;58.31;99938.44;2071213;28;49041;-62
2021/12/09 00:13:46;;;;;;;;;1.00;1.00;;;;;7.60;58.37;99940.19;2075998;28;46379;-65
2021/12/09 00:14:47;;;;;;;;;1.00;1.00;;;;;7.62;58.30;99942.81;2078181;28;46897;-66
2021/12/09 00:15:50;;;;;;;;;1.00;1.00;;;;;7.62;58.52;99943.69;2073025;28;48288;-60
2021/12/09 00:16:53;;;;;;;;;2.50;0.75;;;;;7.61;58.61;99949.00;2078892;28;47236;-61
2021/12/09 00:17:54;;;;;;;;;4.00;2.00;;;;;7.61;58.51;99943.72;2076386;28;47731;-64
2021/12/09 00:18:55;;;;;;;;;1.00;1.00;;;;;7.61;58.48;99949.84;2076951;28;47744;-60
2021/12/09 00:19:55;;;;;;;;;1.00;1.00;;;;;7.60;58.64;99948.13;2077391;28;45756;-63
2021/12/09 00:20:56;;;;;;;;;3.00;1.33;;;;;7.60;58.50;99945.47;2078352;28;47457;-63
2021/12/09 00:21:58;;;;;;;;;2.00;2.00;;;;;7.61;58.50;99949.00;2076214;28;47671;-64
2021/12/09 00:22:58;;;;;;;;;1.25;1.25;;;;;7.60;58.69;99948.13;2077414;28;48165;-63
2021/12/09 00:23:59;;;;;;;;;1.00;1.00;;;;;7.61;58.73;99960.41;2082046;28;47319;-63
2021/12/09 00:25:00;;;;;;;;;2.00;2.00;;;;;7.61;58.45;99951.63;2084217;28;47418;-62
2021/12/09 00:26:00;;;;;;;;;1.67;1.00;;;;;7.61;58.54;99952.50;2074870;28;47187;-62
2021/12/09 00:27:01;;;;;;;;;2.00;2.00;;;;;7.61;58.35;99949.00;2077567;28;46861;-61
2021/12/09 00:28:04;;;;;;;;;1.00;1.00;;;;;7.60;58.64;99950.75;2077512;28;47467;-62
2021/12/09 00:29:06;;;;;;;;;2.50;2.00;;;;;7.60;58.54;99944.63;2078300;28;47032;-62
2021/12/09 00:30:08;;;;;;;;;1.00;1.00;;;;;7.60;58.67;99948.13;2077417;28;46011;-64
2021/12/09 00:31:11;;;;;;;;;1.75;1.75;;;;;7.60;58.71;99952.53;2075754;28;47223;-64
2021/12/09 00:32:11;;;;;;;;;1.33;1.00;;;;;7.61;58.54;99946.34;2077332;28;47209;-63
2021/12/09 00:33:15;;;;;;;;;2.00;1.00;;;;;7.59;58.55;99949.03;2077122;28;47187;-62
2021/12/09 00:34:19;;;;;;;;;1.00;1.00;;;;;7.59;58.52;99950.78;2073852;28;48047;-62
2021/12/09 00:35:26;;;;;;;;;1.25;0.75;;;;;7.59;58.68;99954.31;2074948;28;47332;-62
2021/12/09 00:36:27;;;;;;;;;2.50;2.00;;;;;7.60;58.51;99952.53;2074484;28;47504;-64
2021/12/09 00:37:35;;;;;;;;;1.67;1.00;;;;;7.59;58.57;99950.78;2075356;28;47758;-61
2021/12/09 00:38:41;;;;;;;;;1.00;1.00;;;;;7.59;58.69;99946.38;2077707;28;47466;-66
2021/12/09 00:39:43;;;;;;;;;1.25;1.25;;;;;7.59;58.60;99949.03;2076130;28;47650;-61
2021/12/09 00:40:44;;;;;;;;;1.00;1.00;;;;;7.60;58.66;99937.56;2077941;28;47570;-62
2021/12/09 00:41:44;;;;;;;;;0.67;0.67;;;;;7.60;58.66;99942.84;2077064;28;47518;-62
2021/12/09 00:42:46;;;;;;;;;2.67;1.00;;;;;7.60;58.61;99944.63;2077773;28;47158;-62
2021/12/09 00:43:47;;;;;;;;;2.00;2.00;;;;;7.60;58.83;99942.84;2076011;28;47763;-61
2021/12/09 00:44:49;;;;;;;;;1.00;1.00;;;;;7.61;58.60;99946.34;2078814;28;47479;-62
2021/12/09 00:45:49;;;;;;;;;2.25;2.25;;;;;7.61;58.62;99949.84;2077305;28;48250;-61
2021/12/09 00:46:50;;;;;;;;;2.00;2.00;;;;;7.61;58.68;99954.28;2074978;28;47234;-63
2021/12/09 00:47:51;;;;;;;;;1.33;1.33;;;;;7.61;58.67;99952.50;2073739;28;47089;-62
2021/12/09 00:48:51;;;;;;;;;2.00;1.25;;;;;7.62;58.58;99956.91;2071160;28;47987;-65
2021/12/09 00:49:56;;;;;;;;;1.00;1.00;;;;;7.63;58.81;99955.13;2071774;28;45675;-61
2021/12/09 00:50:58;;;;;;;;;2.00;1.25;;;;;7.63;58.46;99956.00;2076676;28;47856;-63
2021/12/09 00:51:59;;;;;;;;;1.00;1.00;;;;;7.63;58.54;99956.00;2077849;28;47716;-61
2021/12/09 00:53:00;;;;;;;;;1.00;1.00;;;;;7.65;58.56;99958.59;2074444;28;47507;-61
2021/12/09 00:54:00;;;;;;;;;2.00;2.00;;;;;7.65;58.71;99963.88;2077168;28;46687;-62
2021/12/09 00:55:01;;;;;;;;;1.00;1.00;;;;;7.66;58.48;99960.34;2076989;28;47749;-62
2021/12/09 00:56:04;;;;;;;;;1.00;1.00;;;;;7.66;58.82;99955.94;2073746;28;47751;-63
2021/12/09 00:57:05;;;;;;;;;1.25;1.00;;;;;7.67;58.58;99964.72;2079159;28;46161;-63
2021/12/09 00:58:05;;;;;;;;;2.00;2.00;;;;;7.67;58.62;99962.06;2078512;28;47362;-62
2021/12/09 00:59:05;;;;;;;;;1.00;1.00;;;;;7.68;58.71;99961.16;2070507;28;47152;-61
2021/12/09 01:00:13;;;;;;;;;1.33;1.33;;;;;7.68;58.59;99964.69;2068846;28;47683;-63
2021/12/09 01:01:13;;;;;;;;;3.00;2.75;;;;;7.70;58.73;99963.78;2077096;28;47286;-62
2021/12/09 01:02:14;;;;;;;;;4.00;2.00;;;;;7.70;58.34;99963.78;2076373;28;45661;-63
2021/12/09 01:03:15;;;;;;;;;2.00;2.00;;;;;7.70;58.63;99959.34;2072143;28;47001;-62
2021/12/09 01:04:15;;;;;;;;;2.00;2.00;;;;;7.71;58.71;99957.59;2070404;28;47800;-63
2021/12/09 01:05:16;;;;;;;;;1.00;1.00;;;;;7.71;58.64;99961.09;2068954;28;47405;-64
2021/12/09 01:06:17;;;;;;;;;1.00;1.00;;;;;7.71;58.56;99966.38;2079217;28;47115;-62
2021/12/09 01:07:18;;;;;;;;;0.75;0.75;;;;;7.72;58.76;99965.47;2077164;28;47171;-62
2021/12/09 01:08:18;;;;;;;;;1.00;1.00;;;;;7.72;58.54;99960.19;2079978;28;47742;-62
2021/12/09 01:09:19;;;;;;;;;1.00;1.00;;;;;7.73;58.56;99958.41;2079014;28;47878;-62
2021/12/09 01:10:20;;;;;;;;;2.00;1.33;;;;;7.73;58.85;99958.41;2079646;28;47664;-61
2021/12/09 01:11:20;;;;;;;;;6.00;4.33;;;;;7.74;58.69;99965.44;2076175;28;47609;-63
2021/12/09 01:12:21;;;;;;;;;2.33;2.33;;;;;7.74;58.78;99961.03;2071120;28;46743;-62
2021/12/09 01:13:21;;;;;;;;;1.67;1.67;;;;;7.74;58.61;99960.16;2066120;28;47543;-61
2021/12/09 01:14:22;;;;;;;;;2.00;1.33;;;;;7.75;58.51;99961.88;2074061;28;47719;-61
2021/12/09 01:15:23;;;;;;;;;1.00;1.00;;;;;7.75;58.68;99959.25;2077056;28;47230;-63
2021/12/09 01:16:24;;;;;;;;;2.25;2.25;;;;;7.74;58.69;99963.66;2076414;28;47626;-62
2021/12/09 01:17:25;;;;;;;;;1.33;1.00;;;;;7.74;58.62;99958.38;2077254;28;47134;-64
2021/12/09 01:18:26;;;;;;;;;4.25;2.00;;;;;7.74;58.43;99966.31;2079356;28;47672;-63
2021/12/09 01:19:26;;;;;;;;;2.00;2.00;;;;;7.75;58.62;99959.25;2076749;28;45592;-65
2021/12/09 01:20:27;;;;;;;;;2.00;1.00;;;;;7.75;58.59;99962.78;2078247;28;47483;-62
2021/12/09 01:21:27;;;;;;;;;1.00;1.00;;;;;7.76;58.81;99961.88;2076348;28;46109;-62
2021/12/09 01:22:36;;;;;;;;;2.33;1.00;;;;;7.76;58.46;99963.66;2079395;28;47867;-63
2021/12/09 01:23:37;;;;;;;;;0.25;0.00;;;;;7.75;58.66;99962.78;2077164;28;47954;-63
2021/12/09 01:24:38;;;;;;;;;1.00;1.00;;;;;7.76;58.63;99964.53;2078406;28;47362;-66
2021/12/09 01:25:38;;;;;;;;;0.67;0.67;;;;;7.76;58.42;99969.81;2076391;28;47891;-63
2021/12/09 01:26:39;;;;;;;;;1.00;1.00;;;;;7.77;58.61;99968.03;2078634;28;47035;-62
2021/12/09 01:27:43;;;;;;;;;1.67;1.00;;;;;7.76;58.40;99975.09;2077492;28;47187;-63
2021/12/09 01:28:52;;;;;;;;;0.75;0.75;;;;;7.75;58.80;99976.00;2079235;28;47242;-62
2021/12/09 01:29:55;;;;;;;;;2.00;1.00;;;;;7.76;58.72;99972.44;2076825;28;47815;-62
2021/12/09 01:31:01;;;;;;;;;0.75;0.75;;;;;7.77;58.60;99973.31;2076591;28;48165;-61
2021/12/09 01:32:05;;;;;;;;;2.00;2.00;;;;;7.78;58.41;99977.69;2076224;28;47772;-62
2021/12/09 01:33:06;;;;;;;;;0.50;0.50;;;;;7.78;58.65;99980.34;2075128;28;47295;-64
2021/12/09 01:34:08;;;;;;;;;0.00;0.00;;;;;7.79;58.59;99980.28;2077832;28;47683;-62
2021/12/09 01:35:10;;;;;;;;;1.00;1.00;;;;;7.78;58.63;99978.56;2077144;28;47487;-63
2021/12/09 01:36:10;;;;;;;;;2.00;1.00;;;;;7.81;58.65;99980.25;2079049;28;47650;-62
2021/12/09 01:37:11;;;;;;;;;0.67;0.67;;;;;7.80;58.45;99978.53;2077879;28;47168;-62
2021/12/09 01:38:14;;;;;;;;;1.00;1.00;;;;;7.80;58.62;99978.53;2079980;28;48173;-62
2021/12/09 01:39:14;;;;;;;;;2.25;2.00;;;;;7.80;58.36;99975.88;2078323;28;47483;-60
2021/12/09 01:40:15;;;;;;;;;1.00;1.00;;;;;7.81;58.64;99977.63;2078202;28;47694;-62
2021/12/09 01:41:16;;;;;;;;;1.25;1.00;;;;;7.81;58.54;99978.47;2077517;28;47360;-61
2021/12/09 01:42:17;;;;;;;;;2.00;1.00;;;;;7.81;58.51;99985.53;2078456;28;47985;-62
2021/12/09 01:43:17;;;;;;;;;1.00;1.00;;;;;7.82;58.37;99984.63;2077143;28;47587;-61
2021/12/09 01:44:26;;;;;;;;;0.00;0.00;;;;;7.82;58.48;99977.56;2075477;28;47938;-62
2021/12/09 01:45:27;;;;;;;;;2.00;1.25;;;;;7.83;58.54;99983.72;2076596;28;47168;-61
2021/12/09 01:46:27;;;;;;;;;1.00;1.00;;;;;7.82;58.60;99977.56;2078958;28;47533;-61
2021/12/09 01:47:28;;;;;;;;;1.00;1.00;;;;;7.83;58.44;99970.53;2075656;28;47162;-62
2021/12/09 01:48:29;;;;;;;;;0.75;0.75;;;;;7.83;58.48;99979.31;2070977;28;47331;-62
2021/12/09 01:49:29;;;;;;;;;1.00;1.00;;;;;7.84;58.37;99982.81;2072704;28;48154;-62
2021/12/09 01:50:32;;;;;;;;;1.00;1.00;;;;;7.85;58.49;99985.44;2078658;28;46880;-61
2021/12/09 01:51:33;;;;;;;;;1.75;0.50;;;;;7.86;58.30;99988.94;2077173;28;47221;-61
2021/12/09 01:52:33;;;;;;;;;0.67;0.67;;;;;7.86;58.40;99995.09;2079452;28;47630;-61
2021/12/09 01:53:35;;;;;;;;;0.00;0.00;;;;;7.86;58.35;99989.81;2077898;28;47519;-60
2021/12/09 01:54:35;;;;;;;;;1.00;1.00;;;;;7.87;58.31;99995.94;2075768;28;47813;-62
2021/12/09 01:55:36;;;;;;;;;1.00;1.00;;;;;7.87;58.44;100010.03;2076067;28;47582;-63
2021/12/09 01:56:36;;;;;;;;;1.00;0.67;;;;;7.88;58.38;100008.28;2070276;28;47331;-62
2021/12/09 01:57:37;;;;;;;;;1.00;1.00;;;;;7.87;58.49;100007.38;2066131;28;47079;-62
2021/12/09 01:58:37;;;;;;;;;1.00;1.00;;;;;7.88;58.30;100005.66;2069838;28;47245;-62
2021/12/09 01:59:38;;;;;;;;;1.00;1.00;;;;;7.87;58.28;100007.38;2077192;28;47507;-62
2021/12/09 02:00:38;;;;;;;;;1.00;1.00;;;;;7.88;58.15;100008.28;2078206;28;47383;-63
2021/12/09 02:01:39;;;;;;;;;0.00;0.00;;;;;7.87;58.27;100004.75;2078162;28;47333;-62
2021/12/09 02:02:41;;;;;;;;;1.00;1.00;;;;;7.88;58.33;100000.38;2079052;28;46087;-62
2021/12/09 02:03:41;;;;;;;;;1.00;1.00;;;;;7.88;58.26;100008.28;2077403;28;48177;-62
2021/12/09 02:04:43;;;;;;;;;0.00;0.00;;;;;7.88;58.30;99995.94;2077669;28;47679;-62
2021/12/09 02:05:43;;;;;;;;;0.75;0.75;;;;;7.88;58.44;100014.44;2076919;28;47141;-62
2021/12/09 02:06:44;;;;;;;;;1.67;1.00;;;;;7.89;58.22;100002.97;2078901;28;47971;-62
2021/12/09 02:07:45;;;;;;;;;0.00;0.00;;;;;7.89;58.54;100010.91;2073686;28;46940;-62
2021/12/09 02:08:46;;;;;;;;;1.00;1.00;;;;;7.88;58.36;99998.59;2077311;28;47616;-64
2021/12/09 02:09:47;;;;;;;;;1.00;1.00;;;;;7.89;58.33;100002.97;2074895;28;48327;-61
2021/12/09 02:10:48;;;;;;;;;0.00;0.00;;;;;7.90;58.15;100003.84;2072748;28;47475;-61
2021/12/09 02:11:49;;;;;;;;;0.00;0.00;;;;;7.90;58.28;99998.56;2075959;28;48313;-61
2021/12/09 02:12:51;;;;;;;;;1.00;1.00;;;;;7.90;58.33;99998.56;2074931;28;47741;-61
2021/12/09 02:13:56;;;;;;;;;1.00;1.00;;;;;7.90;58.18;100003.84;2076740;28;47368;-62
2021/12/09 02:14:59;;;;;;;;;1.25;1.25;;;;;7.91;58.08;99997.66;2078014;28;47475;-61
2021/12/09 02:16:00;;;;;;;;;0.00;0.00;;;;;7.90;58.21;99999.41;2077629;28;48487;-62
2021/12/09 02:17:00;;;;;;;;;0.00;0.00;;;;;7.91;58.10;100000.28;2078808;28;47402;-62
2021/12/09 02:18:07;;;;;;;;;0.00;0.00;;;;;7.90;58.22;99996.78;2077108;28;46486;-61
2021/12/09 02:19:10;;;;;;;;;1.75;1.00;;;;;7.90;58.17;99990.63;2077435;28;47035;-62
2021/12/09 02:20:11;;;;;;;;;1.00;1.00;;;;;7.90;57.94;99995.91;2078063;28;47692;-61
2021/12/09 02:21:15;;;;;;;;;1.00;1.00;;;;;7.88;58.07;99993.31;2078671;28;47162;-62
2021/12/09 02:22:16;;;;;;;;;1.25;1.00;;;;;7.89;57.89;100000.31;2075223;28;46087;-62
2021/12/09 02:23:17;;;;;;;;;1.67;0.67;;;;;7.88;58.07;99990.66;2074983;28;46928;-62
2021/12/09 02:24:18;;;;;;;;;1.25;1.00;;;;;7.89;58.07;100004.75;2079263;28;46614;-62
2021/12/09 02:25:19;;;;;;;;;0.00;0.00;;;;;7.89;58.04;100002.97;2072682;28;47388;-60
2021/12/09 02:26:25;;;;;;;;;3.00;1.33;;;;;7.90;57.97;100001.19;2078171;28;47454;-62
2021/12/09 02:27:26;;;;;;;;;0.00;0.00;;;;;7.90;57.95;99994.13;2075692;28;47460;-61
2021/12/09 02:28:27;;;;;;;;;1.00;1.00;;;;;7.90;58.09;99995.91;2078976;28;47180;-61
2021/12/09 02:29:27;;;;;;;;;0.67;0.67;;;;;7.90;58.18;99995.91;2076635;28;47682;-62
2021/12/09 02:30:28;;;;;;;;;2.33;1.00;;;;;7.91;58.23;99997.66;2078320;28;47232;-61
2021/12/09 02:31:29;;;;;;;;;0.00;0.00;;;;;7.90;58.14;99994.13;2076739;28;47017;-60
2021/12/09 02:32:29;;;;;;;;;2.25;0.75;;;;;7.91;58.33;100009.09;2078364;28;47181;-61
2021/12/09 02:33:31;;;;;;;;;1.00;1.00;;;;;7.91;58.01;100000.28;2072475;28;45650;-62
2021/12/09 02:34:31;;;;;;;;;2.25;1.25;;;;;7.92;58.25;100008.19;2078931;28;47769;-61
2021/12/09 02:35:31;;;;;;;;;1.00;1.00;;;;;7.93;58.09;99998.47;2076249;28;47411;-61
2021/12/09 02:36:37;;;;;;;;;0.33;0.33;;;;;7.93;58.11;99996.69;2075503;28;46256;-61
2021/12/09 02:37:38;;;;;;;;;1.00;1.00;;;;;7.94;58.16;100002.84;2070556;28;48246;-61
2021/12/09 02:38:45;;;;;;;;;1.67;1.67;;;;;7.94;58.08;100005.50;2074380;28;47975;-62
2021/12/09 02:39:45;;;;;;;;;1.25;1.25;;;;;7.93;58.00;99998.47;2073447;28;47830;-62
2021/12/09 02:40:48;;;;;;;;;0.33;0.33;;;;;7.93;58.07;100009.03;2077561;28;47641;-63
2021/12/09 02:41:50;;;;;;;;;2.67;1.00;;;;;7.93;58.19;100009.91;2076647;28;46217;-62
2021/12/09 02:42:50;;;;;;;;;1.00;1.00;;;;;7.93;58.14;100006.41;2077894;28;48245;-62
2021/12/09 02:44:01;;;;;;;;;1.00;1.00;;;;;7.94;58.16;100003.72;2077335;28;47483;-63
2021/12/09 02:45:05;;;;;;;;;1.00;1.00;;;;;7.95;58.24;100009.88;2066972;28;47109;-61
2021/12/09 02:46:06;;;;;;;;;0.00;0.00;;;;;7.95;58.14;100008.09;2067635;28;47895;-62
2021/12/09 02:47:06;;;;;;;;;1.00;1.00;;;;;7.95;58.17;100005.47;2071375;28;47446;-62
2021/12/09 02:48:07;;;;;;;;;1.00;0.00;;;;;7.95;58.08;100008.09;2078084;28;47283;-60
2021/12/09 02:49:14;;;;;;;;;0.00;0.00;;;;;7.97;57.96;100008.06;2078285;28;47153;-61
2021/12/09 02:50:15;;;;;;;;;1.00;1.00;;;;;7.98;58.17;100008.03;2077537;28;47727;-61
2021/12/09 02:51:15;;;;;;;;;0.00;0.00;;;;;7.99;58.15;100006.25;2076694;28;47154;-62
2021/12/09 02:52:16;;;;;;;;;0.00;0.00;;;;;7.98;58.13;100002.75;2077015;28;46093;-62
2021/12/09 02:53:18;;;;;;;;;1.00;1.00;;;;;7.99;58.23;100006.25;2076433;28;47208;-62
2021/12/09 02:54:21;;;;;;;;;0.00;0.00;;;;;8.00;57.97;100001.84;2078781;28;46487;-61
2021/12/09 02:55:21;;;;;;;;;1.00;0.00;;;;;7.98;58.17;100000.09;2075821;28;47826;-60
2021/12/09 02:56:21;;;;;;;;;1.33;1.00;;;;;8.00;58.02;100009.75;2078318;28;47986;-62
2021/12/09 02:57:22;;;;;;;;;1.00;1.00;;;;;7.99;58.11;100006.25;2071565;28;46949;-62
2021/12/09 02:58:23;;;;;;;;;2.00;2.00;;;;;8.00;58.19;100001.84;2079005;28;47105;-64
2021/12/09 02:59:24;;;;;;;;;0.33;0.33;;;;;8.00;57.97;100010.63;2076392;28;46014;-63
2021/12/09 03:00:25;;;;;;;;;1.75;0.25;;;;;8.00;58.15;100004.47;2078278;28;47573;-62
2021/12/09 03:01:30;;;;;;;;;0.00;0.00;;;;;7.98;58.03;99999.22;2076221;28;47575;-62
2021/12/09 03:02:30;;;;;;;;;1.00;1.00;;;;;7.97;58.11;99998.34;2079102;28;47154;-62
2021/12/09 03:03:31;;;;;;;;;0.33;0.33;;;;;7.97;58.22;100006.28;2076063;28;47915;-61
2021/12/09 03:04:37;;;;;;;;;3.00;1.00;;;;;7.97;58.13;100016.84;2078469;28;47053;-61
2021/12/09 03:05:40;;;;;;;;;1.00;1.00;;;;;7.98;58.03;100023.00;2073634;28;47182;-62
2021/12/09 03:06:42;;;;;;;;;0.25;0.25;;;;;7.97;58.03;100026.56;2078244;28;46548;-63
2021/12/09 03:07:43;;;;;;;;;1.00;1.00;;;;;7.96;58.14;100025.69;2077137;28;48282;-62
2021/12/09 03:08:43;;;;;;;;;1.00;1.00;;;;;7.96;58.07;100023.03;2076293;28;47536;-61
2021/12/09 03:09:50;;;;;;;;;0.67;0.67;;;;;7.96;57.97;100015.13;2074405;28;47633;-61
2021/12/09 03:10:51;;;;;;;;;0.00;0.00;;;;;7.97;57.89;100013.34;2078128;28;47338;-62
2021/12/09 03:11:55;;;;;;;;;3.00;0.33;;;;;7.96;58.30;100017.75;2075308;28;45744;-61
2021/12/09 03:12:59;;;;;;;;;2.00;2.00;;;;;7.97;58.14;100022.13;2077670;28;46975;-61
2021/12/09 03:14:01;;;;;;;;;0.75;0.75;;;;;7.98;58.14;100028.28;2076353;28;46610;-61
2021/12/09 03:15:05;;;;;;;;;1.50;1.50;;;;;7.97;58.29;100016.00;2068625;28;47329;-61
2021/12/09 03:16:06;;;;;;;;;1.00;1.00;;;;;7.98;58.34;100023.88;2060350;28;47192;-61
2021/12/09 03:17:07;;;;;;;;;1.25;1.25;;;;;7.98;58.15;100023.00;2068474;28;47783;-61
2021/12/09 03:18:07;;;;;;;;;4.33;3.00;;;;;7.98;58.15;100020.38;2078410;28;47854;-61
2021/12/09 03:19:08;;;;;;;;;1.00;1.00;;;;;7.98;58.22;100021.22;2076470;28;47495;-61
2021/12/09 03:20:11;;;;;;;;;1.00;1.00;;;;;7.97;57.92;100022.13;2076145;28;48051;-61
2021/12/09 03:21:16;;;;;;;;;0.00;0.00;;;;;7.97;57.98;100021.28;2077619;28;47273;-61
2021/12/09 03:22:17;;;;;;;;;0.25;0.25;;;;;7.97;57.89;100022.13;2073700;28;47529;-62
2021/12/09 03:23:18;;;;;;;;;1.00;1.00;;;;;7.96;58.02;100023.03;2073100;28;47259;-61
2021/12/09 03:24:19;;;;;;;;;0.33;0.00;;;;;7.95;58.05;100015.16;2078694;28;47568;-63
2021/12/09 03:25:20;;;;;;;;;1.00;1.00;;;;;7.96;57.98;100019.53;2070416;28;47490;-61
2021/12/09 03:26:28;;;;;;;;;1.00;1.00;;;;;7.96;58.13;100023.03;2072092;28;48456;-61
2021/12/09 03:27:28;;;;;;;;;1.00;1.00;;;;;7.95;58.10;100016.03;2070544;28;48239;-61
2021/12/09 03:28:29;;;;;;;;;0.00;0.00;;;;;7.95;58.15;100013.38;2076652;28;48330;-61
2021/12/09 03:29:29;;;;;;;;;1.00;1.00;;;;;7.95;58.12;100015.16;2076354;28;47376;-60
2021/12/09 03:30:30;;;;;;;;;1.00;1.00;;;;;7.94;58.10;100022.22;2075480;28;47185;-62
2021/12/09 03:31:31;;;;;;;;;0.00;0.00;;;;;7.95;58.33;100023.94;2069615;28;47952;-62
2021/12/09 03:32:31;;;;;;;;;0.00;0.00;;;;;7.96;58.11;100020.41;2062979;28;47401;-61
2021/12/09 03:33:32;;;;;;;;;1.00;1.00;;;;;7.97;57.98;100021.28;2068873;28;48230;-61
2021/12/09 03:34:34;;;;;;;;;0.00;0.00;;;;;7.97;57.98;100014.22;2077666;28;46741;-62
2021/12/09 03:35:35;;;;;;;;;0.75;0.75;;;;;7.98;58.26;100018.59;2075060;28;47701;-61
2021/12/09 03:36:36;;;;;;;;;2.67;1.00;;;;;8.00;58.15;100020.31;2077389;28;47243;-62
2021/12/09 03:37:37;;;;;;;;;2.50;1.00;;;;;8.00;57.98;100020.31;2072834;28;47314;-61
2021/12/09 03:38:39;;;;;;;;;1.75;1.75;;;;;8.00;58.00;100025.63;2078422;28;47870;-61
2021/12/09 03:39:41;;;;;;;;;1.00;1.00;;;;;7.99;57.98;100022.09;2076170;28;46383;-61
2021/12/09 03:40:41;;;;;;;;;1.00;1.00;;;;;7.99;58.13;100022.09;2077124;28;47959;-62
2021/12/09 03:41:44;;;;;;;;;2.00;2.00;;;;;8.00;58.13;100020.31;2076399;28;47904;-62
2021/12/09 03:42:45;;;;;;;;;1.00;1.00;;;;;8.00;58.11;100023.84;2077859;28;48009;-62
2021/12/09 03:43:46;;;;;;;;;1.50;1.50;;;;;8.00;58.02;100026.47;2075340;28;47086;-61
2021/12/09 03:44:48;;;;;;;;;2.00;0.00;;;;;7.98;58.18;100010.66;2071489;28;47353;-61
2021/12/09 03:45:53;;;;;;;;;2.50;2.00;;;;;8.00;58.09;100026.47;2070486;28;47489;-62
2021/12/09 03:46:56;;;;;;;;;1.25;1.25;;;;;8.00;58.12;100034.41;2073402;28;47418;-62
2021/12/09 03:47:56;;;;;;;;;2.50;1.00;;;;;8.00;58.12;100037.06;2075733;28;46038;-62
2021/12/09 03:48:57;;;;;;;;;0.67;0.00;;;;;8.00;57.92;100036.19;2077591;28;47687;-62
2021/12/09 03:49:59;;;;;;;;;3.33;1.00;;;;;7.99;58.20;100037.94;2074889;28;47755;-62
2021/12/09 03:51:00;;;;;;;;;0.50;0.50;;;;;8.00;58.10;100041.47;2077428;28;46954;-62
2021/12/09 03:52:01;;;;;;;;;2.00;2.00;;;;;7.97;58.02;100035.34;2074076;28;47383;-61
2021/12/09 03:53:01;;;;;;;;;1.00;1.00;;;;;7.96;58.00;100035.38;2076235;28;46786;-62
2021/12/09 03:54:07;;;;;;;;;1.33;1.33;;;;;7.97;58.12;100039.75;2077546;28;47253;-60
2021/12/09 03:55:08;;;;;;;;;0.00;0.00;;;;;7.96;58.26;100033.63;2075522;28;47172;-62
2021/12/09 03:56:09;;;;;;;;;1.75;1.75;;;;;7.96;57.98;100038.91;2077471;28;47521;-62
2021/12/09 03:57:10;;;;;;;;;2.00;2.00;;;;;7.97;58.19;100027.41;2076961;28;47502;-61
2021/12/09 03:58:12;;;;;;;;;0.00;0.00;;;;;7.97;58.19;100035.34;2079658;28;47393;-61
2021/12/09 03:59:13;;;;;;;;;1.00;1.00;;;;;7.98;58.21;100042.38;2077803;28;46018;-61
2021/12/09 04:00:14;;;;;;;;;2.00;2.00;;;;;7.98;58.13;100038.84;2077904;28;47278;-62
2021/12/09 04:01:14;;;;;;;;;1.00;1.00;;;;;8.00;58.23;100041.47;2076534;28;47446;-61
2021/12/09 04:02:16;;;;;;;;;2.00;2.00;;;;;8.01;58.24;100037.94;2078169;28;48070;-61
2021/12/09 04:03:17;;;;;;;;;2.50;1.00;;;;;8.02;58.02;100044.97;2077809;28;47305;-61
2021/12/09 04:04:18;;;;;;;;;0.00;0.00;;;;;8.03;58.20;100041.41;2076958;28;47436;-62
2021/12/09 04:05:18;;;;;;;;;1.00;1.00;;;;;8.03;58.16;100046.72;2074977;28;47397;-62
2021/12/09 04:06:19;;;;;;;;;2.67;1.33;;;;;8.04;58.16;100037.88;2077184;28;47482;-62
2021/12/09 04:07:19;;;;;;;;;0.67;0.67;;;;;8.03;58.02;100049.34;2070903;28;45993;-62
2021/12/09 04:08:21;;;;;;;;;1.67;1.00;;;;;8.02;58.12;100045.84;2072248;28;48092;-60
2021/12/09 04:09:22;;;;;;;;;3.00;1.25;;;;;8.01;58.12;100054.66;2077106;28;47405;-62
2021/12/09 04:10:22;;;;;;;;;1.00;1.00;;;;;8.00;58.08;100055.53;2077286;28;47759;-61
2021/12/09 04:11:23;;;;;;;;;0.00;0.00;;;;;8.00;58.14;100055.53;2075767;28;47314;-62
2021/12/09 04:12:23;;;;;;;;;1.00;0.67;;;;;8.00;58.19;100054.69;2078236;28;47597;-59
2021/12/09 04:13:24;;;;;;;;;1.00;1.00;;;;;8.00;58.09;100060.81;2077238;28;47393;-62
2021/12/09 04:14:25;;;;;;;;;1.00;1.00;;;;;8.00;57.96;100054.69;2078513;28;47366;-61
2021/12/09 04:15:26;;;;;;;;;1.00;1.00;;;;;7.99;58.15;100061.72;2075186;28;48638;-60
2021/12/09 04:16:27;;;;;;;;;1.75;1.75;;;;;7.97;58.11;100056.47;2077612;28;47433;-61
2021/12/09 04:17:27;;;;;;;;;1.00;1.00;;;;;7.98;58.23;100049.44;2076030;28;47102;-62
2021/12/09 04:18:27;;;;;;;;;1.00;1.00;;;;;7.99;58.27;100056.44;2078239;28;45616;-62
2021/12/09 04:19:31;;;;;;;;;1.00;1.00;;;;;7.99;58.08;100053.81;2075919;28;47829;-62
2021/12/09 04:20:31;;;;;;;;;0.75;0.00;;;;;8.00;58.10;100050.25;2077192;28;47748;-62
2021/12/09 04:21:33;;;;;;;;;1.00;0.00;;;;;8.00;58.26;100049.38;2076320;28;47904;-62
2021/12/09 04:22:34;;;;;;;;;1.25;0.75;;;;;8.00;58.14;100052.03;2076049;28;47721;-62
2021/12/09 04:23:35;;;;;;;;;1.00;1.00;;;;;8.00;58.30;100057.31;2072211;28;47233;-62
2021/12/09 04:24:36;;;;;;;;;1.00;0.75;;;;;8.01;58.29;100048.53;2072745;28;46967;-61
2021/12/09 04:25:36;;;;;;;;;1.00;1.00;;;;;8.01;58.31;100043.22;2073843;28;47346;-61
2021/12/09 04:26:39;;;;;;;;;0.67;0.67;;;;;8.02;58.28;100048.47;2078708;28;47696;-62
2021/12/09 04:27:40;;;;;;;;;1.00;1.00;;;;;8.03;58.33;100044.06;2075899;28;47641;-62
2021/12/09 04:28:42;;;;;;;;;2.67;1.33;;;;;8.03;58.36;100047.56;2078252;28;47337;-63
2021/12/09 04:29:42;;;;;;;;;1.25;1.25;;;;;8.04;58.30;100053.72;2078039;28;47813;-62
2021/12/09 04:30:43;;;;;;;;;1.00;1.00;;;;;8.04;58.24;100044.03;2077702;28;47002;-60
2021/12/09 04:31:47;;;;;;;;;1.00;1.00;;;;;8.05;58.16;100056.34;2078077;28;47510;-61
2021/12/09 04:32:49;;;;;;;;;2.25;0.00;;;;;8.05;58.15;100050.19;2078162;28;47477;-61
2021/12/09 04:33:50;;;;;;;;;1.00;1.00;;;;;8.06;58.29;100059.84;2076605;28;47370;-61
2021/12/09 04:34:53;;;;;;;;;1.00;1.00;;;;;8.06;58.13;100059.84;2079383;28;47411;-63
2021/12/09 04:35:54;;;;;;;;;2.50;1.75;;;;;8.06;58.14;100059.84;2078269;28;46980;-63
2021/12/09 04:36:54;;;;;;;;;1.67;1.00;;;;;8.05;57.95;100047.53;2078892;28;47268;-61
2021/12/09 04:37:55;;;;;;;;;1.00;1.00;;;;;8.06;58.17;100050.16;2079042;28;48008;-61
2021/12/09 04:38:55;;;;;;;;;1.00;1.00;;;;;8.05;58.18;100058.97;2079997;28;47349;-61
2021/12/09 04:39:56;;;;;;;;;2.00;1.00;;;;;8.05;58.08;100051.03;2079435;28;47579;-61
2021/12/09 04:40:56;;;;;;;;;0.00;0.00;;;;;8.06;58.08;100051.91;2079544;28;46634;-61
2021/12/09 04:41:57;;;;;;;;;2.00;1.00;;;;;8.06;58.04;100059.84;2079317;28;47539;-61
2021/12/09 04:42:57;;;;;;;;;1.00;1.00;;;;;8.07;58.15;100056.28;2079879;28;47145;-62
2021/12/09 04:43:58;;;;;;;;;0.67;0.67;;;;;8.07;57.95;100053.66;2078673;28;47092;-63
2021/12/09 04:44:59;;;;;;;;;1.75;1.75;;;;;8.07;58.13;100058.94;2078484;28;47318;-62
2021/12/09 04:46:00;;;;;;;;;1.33;1.00;;;;;8.06;58.15;100058.06;2079863;28;47763;-62
2021/12/09 04:47:01;;;;;;;;;2.25;2.25;;;;;8.09;58.18;100067.69;2080301;28;47822;-61
2021/12/09 04:48:02;;;;;;;;;2.00;2.00;;;;;8.09;58.11;100060.63;2077687;28;47808;-63
2021/12/09 04:49:04;;;;;;;;;1.25;1.00;;;;;8.09;58.08;100065.91;2079137;28;47799;-63
2021/12/09 04:50:06;;;;;;;;;0.75;0.75;;;;;8.11;57.89;100060.59;2078736;28;45964;-62
2021/12/09 04:51:07;;;;;;;;;1.50;1.25;;;;;8.10;57.95;100057.09;2078894;28;47251;-61